Time,TemperatureF,DewpointF,PressureIn,WindDirection,WindDirectionDegrees,WindSpeedMPH,WindSpeedGustMPH,Humidity,HourlyPrecipIn,Conditions,Clouds,dailyrainin,SoftwareType,DateUTC
2013-03-02 00:00:00,31.6,30.4,29.47,NW,318,8.7,11.5,95,0.00,,---,0.00,VWS V14.00,2013-03-02 06:00:00,
2013-03-02 00:05:00,31.6,30.4,29.47,North,357,7.4,9.9,95,0.00,,---,0.00,VWS V14.00,2013-03-02 06:05:00,
2013-03-02 00:10:00,31.6,30.4,29.47,North,0,8.1,10.7,95,0.00,,---,0.00,VWS V14.00,2013-03-02 06:10:00,
2013-03-02 00:15:00,31.6,30.4,29.47,NNW,337,9.4,12.3,95,0.00,,---,0.00,VWS V14.00,2013-03-02 06:15:00,
2013-03-02 00:20:00,31.5,30.2,29.47,WNW,296,3.4,7.4,95,0.00,,---,0.00,VWS V14.00,2013-03-02 06:20:00,
2013-03-02 00:25:00,31.5,30.2,29.47,NNW,331,9.4,12.3,95,0.00,,---,0.00,VWS V14.00,2013-03-02 06:25:00,
2013-03-02 00:30:00,31.5,30.2,29.47,North,357,8.7,12.3,95,0.00,,---,0.00,VWS V14.00,2013-03-02 06:30:00,
2013-03-02 00:35:00,31.5,30.2,29.47,North,0,5.4,10.7,95,0.00,,---,0.00,VWS V14.00,2013-03-02 06:35:00,
2013-03-02 00:40:00,31.3,30.0,29.47,NW,324,7.4,9.9,95,0.00,,---,0.00,VWS V14.00,2013-03-02 06:40:00,
2013-03-02 00:45:00,31.3,30.0,29.47,NW,318,0.0,1.0,95,0.00,,---,0.00,VWS V14.00,2013-03-02 06:45:00,
2013-03-02 00:50:00,31.3,30.0,29.47,WNW,291,0.0,5.8,95,0.00,,---,0.00,VWS V14.00,2013-03-02 06:50:00,
2013-03-02 00:55:00,31.3,30.0,29.47,North,353,4.7,6.6,95,0.00,,---,0.00,VWS V14.00,2013-03-02 06:55:00,
2013-03-02 01:00:00,31.1,29.8,29.47,NW,318,0.0,1.0,95,0.00,,---,0.00,VWS V14.00,2013-03-02 07:00:00,
2013-03-02 01:05:00,31.1,29.8,29.47,NNW,331,5.4,7.4,95,0.00,,---,0.00,VWS V14.00,2013-03-02 07:05:00,
2013-03-02 01:10:00,31.1,29.8,29.47,WNW,301,5.4,7.4,95,0.00,,---,0.00,VWS V14.00,2013-03-02 07:10:00,
2013-03-02 01:15:00,31.1,29.6,29.47,WNW,298,4.0,5.8,94,0.00,,---,0.00,VWS V14.00,2013-03-02 07:15:00,
2013-03-02 01:20:00,31.1,29.6,29.47,NW,316,5.4,7.4,94,0.00,,---,0.00,VWS V14.00,2013-03-02 07:20:00,
2013-03-02 01:25:00,31.1,29.6,29.47,WNW,285,4.7,6.6,94,0.00,,---,0.00,VWS V14.00,2013-03-02 07:25:00,
2013-03-02 01:30:00,31.1,29.6,29.47,NW,319,4.7,6.6,94,0.00,,---,0.00,VWS V14.00,2013-03-02 07:30:00,
2013-03-02 01:35:00,31.1,29.6,29.47,WNW,294,4.7,7.4,94,0.00,,---,0.00,VWS V14.00,2013-03-02 07:35:00,
2013-03-02 01:40:00,30.9,29.4,29.47,NW,320,4.0,5.8,94,0.00,,---,0.00,VWS V14.00,2013-03-02 07:40:00,
2013-03-02 01:45:00,30.9,29.4,29.47,NW,315,4.0,5.8,94,0.00,,---,0.00,VWS V14.00,2013-03-02 07:45:00,
2013-03-02 01:50:00,30.9,29.4,29.44,WNW,291,5.4,7.4,94,0.00,,---,0.00,VWS V14.00,2013-03-02 07:50:00,
2013-03-02 01:55:00,30.9,29.4,29.44,NW,309,11.4,14.7,94,0.00,,---,0.00,VWS V14.00,2013-03-02 07:55:00,
2013-03-02 02:00:00,30.9,29.4,29.44,NW,321,10.1,13.1,94,0.00,,---,0.00,VWS V14.00,2013-03-02 08:00:00,
2013-03-02 02:05:00,30.9,29.4,29.47,WNW,303,4.0,5.8,94,0.00,,---,0.00,VWS V14.00,2013-03-02 08:05:00,
2013-03-02 02:10:00,30.9,29.4,29.47,NNW,330,4.7,6.6,94,0.00,,---,0.00,VWS V14.00,2013-03-02 08:10:00,
2013-03-02 02:16:00,30.9,29.4,29.47,West,280,5.4,11.5,94,0.00,,---,0.00,VWS V14.00,2013-03-02 08:16:00,
2013-03-02 02:21:00,30.9,29.4,29.47,WNW,301,8.7,11.5,94,0.00,,---,0.00,VWS V14.00,2013-03-02 08:21:00,
2013-03-02 02:26:00,30.7,29.2,29.47,NNW,335,10.1,13.1,94,0.00,,---,0.00,VWS V14.00,2013-03-02 08:26:00,
2013-03-02 02:31:00,30.7,29.2,29.47,NNW,334,4.7,6.6,94,0.00,,---,0.00,VWS V14.00,2013-03-02 08:31:00,
2013-03-02 02:36:00,30.7,29.2,29.44,West,274,8.7,11.5,94,0.00,,---,0.00,VWS V14.00,2013-03-02 08:36:00,
2013-03-02 02:41:00,30.7,29.2,29.44,WNW,282,5.4,7.4,94,0.00,,---,0.00,VWS V14.00,2013-03-02 08:41:00,
2013-03-02 02:46:00,30.7,29.2,29.44,NW,317,6.0,8.2,94,0.00,,---,0.00,VWS V14.00,2013-03-02 08:46:00,
2013-03-02 02:51:00,30.7,29.2,29.44,NW,308,7.4,9.9,94,0.00,,---,0.00,VWS V14.00,2013-03-02 08:51:00,
2013-03-02 02:56:00,30.7,29.2,29.44,WSW,248,4.7,6.6,94,0.00,,---,0.00,VWS V14.00,2013-03-02 08:56:00,
2013-03-02 03:01:00,30.7,29.2,29.44,NW,322,7.4,9.9,94,0.00,,---,0.00,VWS V14.00,2013-03-02 09:01:00,
2013-03-02 03:06:00,30.7,29.2,29.44,NW,304,4.7,8.2,94,0.00,,---,0.00,VWS V14.00,2013-03-02 09:06:00,
2013-03-02 03:11:00,30.7,29.2,29.44,NW,325,9.4,12.3,94,0.00,,---,0.00,VWS V14.00,2013-03-02 09:11:00,
2013-03-02 03:16:00,30.7,29.2,29.44,North,0,8.7,11.5,94,0.00,,---,0.00,VWS V14.00,2013-03-02 09:16:00,
2013-03-02 03:21:00,30.7,29.2,29.44,NNW,332,7.4,9.9,94,0.00,,---,0.00,VWS V14.00,2013-03-02 09:21:00,
2013-03-02 03:26:00,30.7,29.2,29.44,WNW,302,3.4,5.0,94,0.00,,---,0.00,VWS V14.00,2013-03-02 09:26:00,
2013-03-02 03:31:00,30.7,29.2,29.44,WNW,299,8.1,10.7,94,0.00,,---,0.00,VWS V14.00,2013-03-02 09:31:00,
2013-03-02 03:36:00,30.7,29.2,29.44,NNW,329,5.4,7.4,94,0.00,,---,0.00,VWS V14.00,2013-03-02 09:36:00,
2013-03-02 03:41:00,30.7,29.2,29.44,WNW,300,12.1,15.5,94,0.00,,---,0.00,VWS V14.00,2013-03-02 09:41:00,
2013-03-02 03:46:00,30.9,29.4,29.44,North,9,8.1,10.7,94,0.00,,---,0.00,VWS V14.00,2013-03-02 09:46:00,
2013-03-02 03:51:00,30.9,29.4,29.44,WNW,286,8.7,11.5,94,0.00,,---,0.00,VWS V14.00,2013-03-02 09:51:00,
2013-03-02 03:56:00,30.9,29.4,29.44,NW,314,5.4,7.4,94,0.00,,---,0.00,VWS V14.00,2013-03-02 09:56:00,
2013-03-02 04:01:00,30.9,29.4,29.44,NW,304,6.0,12.3,94,0.00,,---,0.00,VWS V14.00,2013-03-02 10:01:00,
2013-03-02 04:06:00,30.9,29.4,29.44,NW,311,6.0,8.2,94,0.00,,---,0.00,VWS V14.00,2013-03-02 10:06:00,
2013-03-02 04:11:00,30.9,29.4,29.44,North,0,5.4,15.9,94,0.00,,---,0.00,VWS V14.00,2013-03-02 10:11:00,
2013-03-02 04:16:00,30.9,29.4,29.44,North,353,7.4,10.7,94,0.00,,---,0.00,VWS V14.00,2013-03-02 10:16:00,
2013-03-02 04:21:00,30.9,29.4,29.44,North,0,3.4,5.0,94,0.00,,---,0.00,VWS V14.00,2013-03-02 10:21:00,
2013-03-02 04:26:00,30.9,29.4,29.44,NNW,329,5.4,7.4,94,0.00,,---,0.00,VWS V14.00,2013-03-02 10:26:00,
2013-03-02 04:31:00,30.9,29.4,29.44,North,357,4.0,5.8,94,0.00,,---,0.00,VWS V14.00,2013-03-02 10:31:00,
2013-03-02 04:36:00,30.9,29.4,29.44,NNW,329,9.4,12.3,94,0.00,,---,0.00,VWS V14.00,2013-03-02 10:36:00,
2013-03-02 04:41:00,31.1,29.6,29.44,NW,325,5.4,7.4,94,0.00,,---,0.00,VWS V14.00,2013-03-02 10:41:00,
2013-03-02 04:46:00,31.1,29.6,29.44,WNW,293,4.7,6.6,94,0.00,,---,0.00,VWS V14.00,2013-03-02 10:46:00,
2013-03-02 04:51:00,31.1,29.6,29.44,NW,305,8.1,10.7,94,0.00,,---,0.00,VWS V14.00,2013-03-02 10:51:00,
2013-03-02 04:56:00,31.1,29.6,29.44,North,357,11.4,14.7,94,0.00,,---,0.00,VWS V14.00,2013-03-02 10:56:00,
2013-03-02 05:01:00,31.1,29.6,29.44,NNW,332,6.0,10.7,94,0.00,,---,0.00,VWS V14.00,2013-03-02 11:01:00,
2013-03-02 05:06:00,30.9,29.1,29.47,North,2,9.4,12.3,93,0.00,,---,0.00,VWS V14.00,2013-03-02 11:06:00,
2013-03-02 05:11:00,30.9,29.1,29.47,WNW,294,0.0,5.8,93,0.00,,---,0.00,VWS V14.00,2013-03-02 11:11:00,
2013-03-02 05:16:00,30.9,29.1,29.47,NNW,339,8.1,10.7,93,0.00,,---,0.00,VWS V14.00,2013-03-02 11:16:00,
2013-03-02 05:21:00,30.9,29.1,29.47,NNW,334,0.0,1.0,93,0.00,,---,0.00,VWS V14.00,2013-03-02 11:21:00,
2013-03-02 05:26:00,30.9,29.1,29.47,NNW,344,13.1,16.7,93,0.00,,---,0.00,VWS V14.00,2013-03-02 11:26:00,
2013-03-02 05:31:00,30.9,29.1,29.47,NW,322,4.0,5.8,93,0.00,,---,0.00,VWS V14.00,2013-03-02 11:31:00,
2013-03-02 05:36:00,31.1,29.3,29.44,WSW,244,0.0,12.3,93,0.00,,---,0.00,VWS V14.00,2013-03-02 11:36:00,
2013-03-02 05:41:00,31.1,29.3,29.44,North,357,4.0,5.8,93,0.00,,---,0.00,VWS V14.00,2013-03-02 11:41:00,
2013-03-02 05:46:00,31.1,29.3,29.44,WNW,285,14.4,18.3,93,0.00,,---,0.00,VWS V14.00,2013-03-02 11:46:00,
2013-03-02 05:51:00,31.1,29.3,29.47,North,357,7.4,9.9,93,0.00,,---,0.00,VWS V14.00,2013-03-02 11:51:00,
2013-03-02 05:56:00,31.1,29.0,29.47,NNW,331,9.4,12.3,92,0.00,,---,0.00,VWS V14.00,2013-03-02 11:56:00,
2013-03-02 06:01:00,31.1,29.0,29.47,NNW,335,4.0,5.8,92,0.00,,---,0.00,VWS V14.00,2013-03-02 12:01:00,
2013-03-02 06:06:00,31.1,29.0,29.47,West,277,9.4,12.3,92,0.00,,---,0.00,VWS V14.00,2013-03-02 12:06:00,
2013-03-02 06:11:00,30.9,28.9,29.47,NNW,338,12.1,15.5,92,0.00,,---,0.00,VWS V14.00,2013-03-02 12:11:00,
2013-03-02 06:16:00,30.9,28.9,29.47,NNW,330,4.7,7.4,92,0.00,,---,0.00,VWS V14.00,2013-03-02 12:16:00,
2013-03-02 06:21:00,30.9,28.6,29.47,North,0,8.1,10.7,91,0.00,,---,0.00,VWS V14.00,2013-03-02 12:21:00,
2013-03-02 06:26:00,30.9,28.6,29.47,NNW,341,13.8,17.5,91,0.00,,---,0.00,VWS V14.00,2013-03-02 12:26:00,
2013-03-02 06:31:00,30.9,28.6,29.47,NW,314,8.7,11.5,91,0.00,,---,0.00,VWS V14.00,2013-03-02 12:31:00,
2013-03-02 06:36:00,30.7,28.4,29.47,NW,305,5.4,7.4,91,0.00,,---,0.00,VWS V14.00,2013-03-02 12:36:00,
2013-03-02 06:41:00,30.7,28.4,29.47,NW,325,5.4,7.4,91,0.00,,---,0.00,VWS V14.00,2013-03-02 12:41:00,
2013-03-02 06:46:00,30.7,28.4,29.47,North,357,8.7,11.5,91,0.00,,---,0.00,VWS V14.00,2013-03-02 12:46:00,
2013-03-02 06:51:00,30.7,28.4,29.47,North,353,11.4,14.7,91,0.00,,---,0.00,VWS V14.00,2013-03-02 12:51:00,
2013-03-02 06:56:00,30.7,28.4,29.47,WNW,298,0.0,12.3,91,0.00,,---,0.00,VWS V14.00,2013-03-02 12:56:00,
2013-03-02 07:01:00,30.7,28.4,29.47,NW,309,6.0,8.2,91,0.00,,---,0.00,VWS V14.00,2013-03-02 13:01:00,
2013-03-02 07:06:00,30.6,28.2,29.47,NW,324,5.4,7.4,91,0.00,,---,0.00,VWS V14.00,2013-03-02 13:06:00,
2013-03-02 07:11:00,30.6,28.2,29.47,North,4,11.4,14.7,91,0.00,,---,0.00,VWS V14.00,2013-03-02 13:11:00,
2013-03-02 07:16:00,30.6,28.2,29.47,NW,315,8.7,11.5,91,0.00,,---,0.00,VWS V14.00,2013-03-02 13:16:00,
2013-03-02 07:21:00,30.6,28.2,29.47,NNE,12,9.4,13.9,91,0.00,,---,0.00,VWS V14.00,2013-03-02 13:21:00,
2013-03-02 07:26:00,30.6,28.2,29.47,NW,322,12.4,15.9,91,0.00,,---,0.00,VWS V14.00,2013-03-02 13:26:00,
2013-03-02 07:31:00,30.6,28.2,29.47,North,353,12.1,15.5,91,0.00,,---,0.00,VWS V14.00,2013-03-02 13:31:00,
2013-03-02 07:36:00,30.6,28.2,29.50,North,350,15.1,19.9,91,0.00,,---,0.00,VWS V14.00,2013-03-02 13:36:00,
2013-03-02 07:41:00,30.4,28.1,29.50,North,357,8.1,10.7,91,0.00,,---,0.00,VWS V14.00,2013-03-02 13:41:00,
2013-03-02 07:46:00,30.4,28.1,29.50,North,353,15.8,19.9,91,0.00,,---,0.00,VWS V14.00,2013-03-02 13:46:00,
2013-03-02 07:51:00,30.4,28.1,29.50,North,3,8.7,19.9,91,0.00,,---,0.00,VWS V14.00,2013-03-02 13:51:00,
2013-03-02 07:56:00,30.4,28.1,29.50,North,4,9.4,12.3,91,0.00,,---,0.00,VWS V14.00,2013-03-02 13:56:00,
2013-03-02 08:01:00,30.6,28.2,29.50,North,357,13.1,16.7,91,0.00,,---,0.00,VWS V14.00,2013-03-02 14:01:00,
2013-03-02 08:06:00,30.6,28.2,29.50,North,353,13.1,16.7,91,0.00,,---,0.00,VWS V14.00,2013-03-02 14:06:00,
2013-03-02 08:11:00,30.6,28.2,29.50,North,7,13.1,16.7,91,0.00,,---,0.00,VWS V14.00,2013-03-02 14:11:00,
2013-03-02 08:16:00,30.6,28.2,29.50,North,353,14.4,18.3,91,0.00,,---,0.00,VWS V14.00,2013-03-02 14:16:00,
2013-03-02 08:21:00,30.6,28.5,29.50,NNW,344,13.1,16.7,92,0.00,,---,0.00,VWS V14.00,2013-03-02 14:21:00,
2013-03-02 08:26:00,30.6,28.5,29.50,North,3,11.4,14.7,92,0.00,,---,0.00,VWS V14.00,2013-03-02 14:26:00,
2013-03-02 08:31:00,30.6,28.5,29.50,North,357,11.4,14.7,92,0.00,,---,0.00,VWS V14.00,2013-03-02 14:31:00,
2013-03-02 08:36:00,30.6,28.5,29.50,NNW,345,12.4,15.9,92,0.00,,---,0.00,VWS V14.00,2013-03-02 14:36:00,
2013-03-02 08:41:00,30.6,28.5,29.50,North,8,15.1,21.5,92,0.00,,---,0.00,VWS V14.00,2013-03-02 14:41:00,
2013-03-02 08:46:00,30.6,28.5,29.50,NNE,21,23.2,28.8,92,0.00,,---,0.00,VWS V14.00,2013-03-02 14:46:00,
2013-03-02 08:51:00,30.2,28.2,29.50,North,6,19.8,24.8,92,0.00,,---,0.00,VWS V14.00,2013-03-02 14:51:00,
2013-03-02 08:56:00,30.2,28.2,29.50,North,1,12.1,15.5,92,0.00,,---,0.00,VWS V14.00,2013-03-02 14:56:00,
2013-03-02 09:01:00,30.2,28.2,29.50,NNE,22,9.4,12.3,92,0.00,,---,0.00,VWS V14.00,2013-03-02 15:01:00,
2013-03-02 09:06:00,30.2,28.2,29.50,North,357,9.4,12.3,92,0.00,,---,0.00,VWS V14.00,2013-03-02 15:06:00,
2013-03-02 09:11:00,30.2,28.2,29.50,North,349,12.4,15.9,92,0.00,,---,0.00,VWS V14.00,2013-03-02 15:11:00,
2013-03-02 09:16:00,30.2,28.2,29.50,NNW,341,8.1,11.5,92,0.00,,---,0.00,VWS V14.00,2013-03-02 15:16:00,
2013-03-02 09:21:00,30.2,28.2,29.53,North,353,9.4,24.0,92,0.00,,---,0.00,VWS V14.00,2013-03-02 15:21:00,
2013-03-02 09:26:00,30.2,28.2,29.53,North,0,15.8,19.9,92,0.00,,---,0.00,VWS V14.00,2013-03-02 15:26:00,
2013-03-02 09:31:00,30.2,28.2,29.53,North,353,15.1,19.1,92,0.00,,---,0.00,VWS V14.00,2013-03-02 15:31:00,
2013-03-02 09:36:00,30.2,28.2,29.53,NNW,329,9.4,13.9,92,0.00,,---,0.00,VWS V14.00,2013-03-02 15:36:00,
2013-03-02 09:41:00,30.2,28.2,29.53,North,357,16.4,20.7,92,0.00,,---,0.00,VWS V14.00,2013-03-02 15:41:00,
2013-03-02 09:46:00,30.2,28.4,29.53,NNW,343,12.4,15.9,93,0.00,,---,0.00,VWS V14.00,2013-03-02 15:46:00,
2013-03-02 09:51:00,30.2,28.4,29.53,North,353,16.4,20.7,93,0.00,,---,0.00,VWS V14.00,2013-03-02 15:51:00,
2013-03-02 09:56:00,30.2,28.4,29.53,North,357,15.8,19.9,93,0.00,,---,0.00,VWS V14.00,2013-03-02 15:56:00,
2013-03-02 10:01:00,30.2,28.4,29.53,North,2,11.4,24.8,93,0.00,,---,0.00,VWS V14.00,2013-03-02 16:01:00,
2013-03-02 10:07:00,30.2,28.4,29.53,NNW,337,11.4,14.7,93,0.00,,---,0.00,VWS V14.00,2013-03-02 16:07:00,
2013-03-02 10:12:00,30.6,28.8,29.53,NNW,348,16.4,28.0,93,0.00,,---,0.00,VWS V14.00,2013-03-02 16:12:00,
2013-03-02 10:17:00,30.6,28.8,29.53,North,2,12.1,15.5,93,0.00,,---,0.00,VWS V14.00,2013-03-02 16:17:00,
2013-03-02 10:21:00,30.6,28.8,29.53,North,349,13.1,16.7,93,0.00,,---,0.00,VWS V14.00,2013-03-02 16:21:00,
2013-03-02 10:26:00,30.6,28.8,29.53,NNW,329,12.4,15.9,93,0.00,,---,0.00,VWS V14.00,2013-03-02 16:26:00,
2013-03-02 10:31:00,30.6,28.8,29.53,North,2,9.4,12.3,93,0.00,,---,0.00,VWS V14.00,2013-03-02 16:31:00,
2013-03-02 10:37:00,30.6,28.8,29.53,North,357,13.1,16.7,93,0.00,,---,0.00,VWS V14.00,2013-03-02 16:37:00,
2013-03-02 10:42:00,30.7,29.0,29.53,NNW,345,12.4,19.9,93,0.00,,---,0.00,VWS V14.00,2013-03-02 16:42:00,
2013-03-02 10:47:00,30.7,29.0,29.53,North,349,13.1,16.7,93,0.00,,---,0.00,VWS V14.00,2013-03-02 16:47:00,
2013-03-02 10:52:00,30.7,29.0,29.53,NNW,336,19.1,24.0,93,0.00,,---,0.00,VWS V14.00,2013-03-02 16:52:00,
2013-03-02 10:57:00,30.7,29.0,29.53,North,357,15.1,24.0,93,0.00,,---,0.00,VWS V14.00,2013-03-02 16:57:00,
2013-03-02 11:02:00,30.7,29.0,29.53,North,7,10.7,13.9,93,0.00,,---,0.00,VWS V14.00,2013-03-02 17:02:00,
2013-03-02 11:07:00,30.7,29.0,29.53,North,357,15.1,19.9,93,0.00,,---,0.00,VWS V14.00,2013-03-02 17:07:00,
2013-03-02 11:12:00,30.7,29.0,29.53,North,353,16.4,20.7,93,0.00,,---,0.00,VWS V14.00,2013-03-02 17:12:00,
2013-03-02 11:17:00,30.7,29.0,29.53,North,0,17.1,21.5,93,0.00,,---,0.00,VWS V14.00,2013-03-02 17:17:00,
2013-03-02 11:22:00,30.7,29.0,29.53,NNW,346,12.4,15.9,93,0.00,,---,0.00,VWS V14.00,2013-03-02 17:22:00,
2013-03-02 11:27:00,30.7,29.0,29.53,North,353,11.4,15.9,93,0.00,,---,0.00,VWS V14.00,2013-03-02 17:27:00,
2013-03-02 11:32:00,30.7,29.0,29.53,North,353,18.5,23.1,93,0.00,,---,0.00,VWS V14.00,2013-03-02 17:32:00,
2013-03-02 11:37:00,30.7,29.0,29.53,NNE,18,17.1,21.5,93,0.00,,---,0.00,VWS V14.00,2013-03-02 17:37:00,
2013-03-02 11:41:00,30.7,29.0,29.53,North,357,13.8,17.5,93,0.00,,---,0.00,VWS V14.00,2013-03-02 17:41:00,
2013-03-02 11:47:00,30.7,29.0,29.53,NNW,344,13.1,20.7,93,0.00,,---,0.00,VWS V14.00,2013-03-02 17:47:00,
2013-03-02 11:52:00,30.7,29.0,29.53,NW,322,12.1,15.5,93,0.00,,---,0.00,VWS V14.00,2013-03-02 17:52:00,
2013-03-02 11:57:00,30.7,29.0,29.53,North,353,12.4,15.9,93,0.00,,---,0.00,VWS V14.00,2013-03-02 17:57:00,
2013-03-02 12:02:00,30.7,29.0,29.53,North,353,19.1,24.0,93,0.00,,---,0.00,VWS V14.00,2013-03-02 18:02:00,
2013-03-02 12:07:00,30.7,29.0,29.53,North,353,19.8,24.8,93,0.00,,---,0.00,VWS V14.00,2013-03-02 18:07:00,
2013-03-02 12:12:00,30.7,29.0,29.53,NNW,338,16.4,20.7,93,0.00,,---,0.00,VWS V14.00,2013-03-02 18:12:00,
2013-03-02 12:17:00,30.7,29.0,29.53,North,353,13.1,16.7,93,0.00,,---,0.00,VWS V14.00,2013-03-02 18:17:00,
2013-03-02 12:22:00,30.7,29.0,29.53,North,7,12.4,20.7,93,0.00,,---,0.00,VWS V14.00,2013-03-02 18:22:00,
2013-03-02 12:27:00,30.7,29.0,29.53,North,7,9.4,12.3,93,0.00,,---,0.00,VWS V14.00,2013-03-02 18:27:00,
2013-03-02 12:32:00,31.6,26.2,29.53,North,353,16.4,20.7,80,0.00,,---,0.00,VWS V14.00,2013-03-02 18:32:00,
2013-03-02 12:37:00,31.6,26.2,29.53,NNE,16,9.4,19.1,80,0.00,,---,0.00,VWS V14.00,2013-03-02 18:37:00,
2013-03-02 12:42:00,31.6,26.2,29.53,North,357,15.8,19.9,80,0.00,,---,0.00,VWS V14.00,2013-03-02 18:42:00,
2013-03-02 12:47:00,31.6,26.2,29.53,NNW,345,9.4,16.7,80,0.00,,---,0.00,VWS V14.00,2013-03-02 18:47:00,
2013-03-02 12:52:00,31.6,26.2,29.50,NNW,337,11.4,16.7,80,0.00,,---,0.00,VWS V14.00,2013-03-02 18:52:00,
2013-03-02 12:57:00,31.6,26.2,29.50,North,353,8.1,10.7,80,0.00,,---,0.00,VWS V14.00,2013-03-02 18:57:00,
2013-03-02 13:02:00,31.6,26.2,29.50,NNW,334,13.1,16.7,80,0.00,,---,0.00,VWS V14.00,2013-03-02 19:02:00,
2013-03-02 13:07:00,31.6,26.2,29.50,North,349,9.4,12.3,80,0.00,,---,0.00,VWS V14.00,2013-03-02 19:07:00,
2013-03-02 13:12:00,31.6,26.2,29.50,NW,315,8.1,10.7,80,0.00,,---,0.00,VWS V14.00,2013-03-02 19:12:00,
2013-03-02 13:17:00,31.6,26.2,29.50,NW,322,18.5,23.1,80,0.00,,---,0.00,VWS V14.00,2013-03-02 19:17:00,
2013-03-02 13:22:00,31.6,26.2,29.50,North,353,9.4,12.3,80,0.00,,---,0.00,VWS V14.00,2013-03-02 19:22:00,
2013-03-02 13:27:00,31.6,26.2,29.50,North,357,12.4,15.9,80,0.00,,---,0.00,VWS V14.00,2013-03-02 19:27:00,
2013-03-02 13:32:00,31.6,26.2,29.50,North,9,15.1,19.1,80,0.00,,---,0.00,VWS V14.00,2013-03-02 19:32:00,
2013-03-02 13:37:00,31.6,26.2,29.50,NNE,30,15.1,19.1,80,0.00,,---,0.00,VWS V14.00,2013-03-02 19:37:00,
2013-03-02 13:42:00,31.6,26.2,29.50,NNE,19,9.4,12.3,80,0.00,,---,0.00,VWS V14.00,2013-03-02 19:42:00,
2013-03-02 13:47:00,31.6,26.2,29.50,North,10,8.7,11.5,80,0.00,,---,0.00,VWS V14.00,2013-03-02 19:47:00,
2013-03-02 13:52:00,31.6,26.2,29.50,North,0,16.4,20.7,80,0.00,,---,0.00,VWS V14.00,2013-03-02 19:52:00,
2013-03-02 13:57:00,31.6,26.2,29.50,North,353,16.4,20.7,80,0.00,,---,0.00,VWS V14.00,2013-03-02 19:57:00,
2013-03-02 14:02:00,31.6,26.2,29.50,NW,324,12.4,15.9,80,0.00,,---,0.00,VWS V14.00,2013-03-02 20:02:00,
2013-03-02 14:07:00,31.6,26.2,29.50,North,5,9.4,12.3,80,0.00,,---,0.00,VWS V14.00,2013-03-02 20:07:00,
2013-03-02 14:12:00,32.2,23.5,29.50,North,9,8.7,11.5,70,0.00,,---,0.00,VWS V14.00,2013-03-02 20:12:00,
2013-03-02 14:17:00,32.2,23.5,29.50,North,5,8.7,11.5,70,0.00,,---,0.00,VWS V14.00,2013-03-02 20:17:00,
2013-03-02 14:22:00,32.5,23.5,29.50,NNW,330,14.4,18.3,69,0.00,,---,0.00,VWS V14.00,2013-03-02 20:22:00,
2013-03-02 14:27:00,32.5,23.5,29.50,North,3,12.1,15.5,69,0.00,,---,0.00,VWS V14.00,2013-03-02 20:27:00,
2013-03-02 14:32:00,32.7,23.3,29.50,NW,324,13.1,16.7,68,0.00,,---,0.00,VWS V14.00,2013-03-02 20:32:00,
2013-03-02 14:37:00,32.9,23.2,29.50,NNW,337,12.1,15.9,67,0.00,,---,0.00,VWS V14.00,2013-03-02 20:37:00,
2013-03-02 14:42:00,32.9,23.2,29.50,NW,308,6.0,8.2,67,0.00,,---,0.00,VWS V14.00,2013-03-02 20:42:00,
2013-03-02 14:47:00,32.9,23.2,29.50,NNW,345,11.4,14.7,67,0.00,,---,0.00,VWS V14.00,2013-03-02 20:47:00,
2013-03-02 14:52:00,32.9,23.2,29.50,NNW,348,12.4,15.9,67,0.00,,---,0.00,VWS V14.00,2013-03-02 20:52:00,
2013-03-02 14:57:00,32.9,23.2,29.50,NW,304,5.4,7.4,67,0.00,,---,0.00,VWS V14.00,2013-03-02 20:57:00,
2013-03-02 15:02:00,32.9,23.2,29.53,NNW,329,8.1,10.7,67,0.00,,---,0.00,VWS V14.00,2013-03-02 21:02:00,
2013-03-02 15:07:00,32.9,23.2,29.53,NW,304,11.4,14.7,67,0.00,,---,0.00,VWS V14.00,2013-03-02 21:07:00,
2013-03-02 15:12:00,32.9,23.2,29.53,NNW,339,8.1,10.7,67,0.00,,---,0.00,VWS V14.00,2013-03-02 21:12:00,
2013-03-02 15:17:00,32.9,23.2,29.53,North,9,15.1,19.1,67,0.00,,---,0.00,VWS V14.00,2013-03-02 21:17:00,
2013-03-02 15:22:00,32.9,23.2,29.53,North,0,16.4,20.7,67,0.00,,---,0.00,VWS V14.00,2013-03-02 21:22:00,
2013-03-02 15:27:00,32.9,23.2,29.53,NNW,328,15.8,19.9,67,0.00,,---,0.00,VWS V14.00,2013-03-02 21:27:00,
2013-03-02 15:32:00,32.9,23.2,29.53,North,4,19.8,24.8,67,0.00,,---,0.00,VWS V14.00,2013-03-02 21:32:00,
2013-03-02 15:37:00,32.9,23.2,29.53,NNW,345,9.4,12.3,67,0.00,,---,0.00,VWS V14.00,2013-03-02 21:37:00,
2013-03-02 15:42:00,31.6,20.9,29.53,North,357,8.1,10.7,64,0.00,,---,0.00,VWS V14.00,2013-03-02 21:42:00,
2013-03-02 15:47:00,31.6,20.9,29.53,North,353,13.1,21.5,64,0.00,,---,0.00,VWS V14.00,2013-03-02 21:47:00,
2013-03-02 15:52:00,31.8,21.8,29.53,North,7,13.8,17.5,66,0.00,,---,0.00,VWS V14.00,2013-03-02 21:52:00,
2013-03-02 15:57:00,31.8,21.8,29.53,NNW,331,9.4,12.3,66,0.00,,---,0.00,VWS V14.00,2013-03-02 21:57:00,
2013-03-02 16:02:00,31.8,21.8,29.53,North,353,8.7,12.3,66,0.00,,---,0.00,VWS V14.00,2013-03-02 22:02:00,
2013-03-02 16:07:00,31.6,22.0,29.53,North,357,11.4,14.7,67,0.00,,---,0.00,VWS V14.00,2013-03-02 22:07:00,
2013-03-02 16:12:00,31.6,22.0,29.53,NNW,338,13.1,16.7,67,0.00,,---,0.00,VWS V14.00,2013-03-02 22:12:00,
2013-03-02 16:17:00,31.6,22.0,29.53,NNW,328,15.1,19.1,67,0.00,,---,0.00,VWS V14.00,2013-03-02 22:17:00,
2013-03-02 16:22:00,31.6,22.0,29.53,NNW,344,15.8,19.9,67,0.00,,---,0.00,VWS V14.00,2013-03-02 22:22:00,
2013-03-02 16:27:00,31.6,22.0,29.53,NNW,340,6.0,8.2,67,0.00,,---,0.00,VWS V14.00,2013-03-02 22:27:00,
2013-03-02 16:32:00,31.6,22.0,29.53,North,357,14.4,18.3,67,0.00,,---,0.00,VWS V14.00,2013-03-02 22:32:00,
2013-03-02 16:37:00,31.6,22.0,29.53,NNE,14,19.1,24.0,67,0.00,,---,0.00,VWS V14.00,2013-03-02 22:37:00,
2013-03-02 16:42:00,31.6,22.0,29.53,NNW,341,4.7,6.6,67,0.00,,---,0.00,VWS V14.00,2013-03-02 22:42:00,
2013-03-02 16:47:00,31.6,20.9,29.53,NNW,337,8.1,10.7,64,0.00,,---,0.00,VWS V14.00,2013-03-02 22:47:00,
2013-03-02 16:52:00,31.6,20.9,29.53,North,357,4.7,8.2,64,0.00,,---,0.00,VWS V14.00,2013-03-02 22:52:00,
2013-03-02 16:57:00,31.6,20.9,29.53,NW,313,4.7,6.6,64,0.00,,---,0.00,VWS V14.00,2013-03-02 22:57:00,
2013-03-02 17:02:00,31.5,20.7,29.53,NW,313,4.7,6.6,64,0.00,,---,0.00,VWS V14.00,2013-03-02 23:02:00,
2013-03-02 17:07:00,31.3,20.9,29.53,NW,322,12.1,15.5,65,0.00,,---,0.00,VWS V14.00,2013-03-02 23:07:00,
2013-03-02 17:12:00,31.1,20.7,29.53,NW,322,8.7,11.5,65,0.00,,---,0.00,VWS V14.00,2013-03-02 23:12:00,
2013-03-02 17:17:00,31.3,20.9,29.53,NNW,346,8.1,11.5,65,0.00,,---,0.00,VWS V14.00,2013-03-02 23:17:00,
2013-03-02 17:22:00,31.5,21.1,29.53,NNW,338,11.4,14.7,65,0.00,,---,0.00,VWS V14.00,2013-03-02 23:22:00,
2013-03-02 17:27:00,31.3,20.9,29.53,North,353,10.7,13.9,65,0.00,,---,0.00,VWS V14.00,2013-03-02 23:27:00,
2013-03-02 17:32:00,31.3,20.9,29.53,North,357,15.8,19.9,65,0.00,,---,0.00,VWS V14.00,2013-03-02 23:32:00,
2013-03-02 17:37:00,31.3,20.9,29.53,North,357,9.4,12.3,65,0.00,,---,0.00,VWS V14.00,2013-03-02 23:37:00,
2013-03-02 17:42:00,31.1,20.4,29.53,NNE,12,9.4,12.3,64,0.00,,---,0.00,VWS V14.00,2013-03-02 23:42:00,
2013-03-02 17:47:00,31.1,20.4,29.53,North,353,10.1,13.1,64,0.00,,---,0.00,VWS V14.00,2013-03-02 23:47:00,
2013-03-02 17:52:00,31.1,20.4,29.53,North,0,5.4,10.7,64,0.00,,---,0.00,VWS V14.00,2013-03-02 23:52:00,
2013-03-02 17:57:00,31.1,20.4,29.53,North,1,5.4,7.4,64,0.00,,---,0.00,VWS V14.00,2013-03-02 23:57:00,
2013-03-02 18:02:00,30.9,20.5,29.53,NNW,338,7.4,9.9,65,0.00,,---,0.00,VWS V14.00,2013-03-03 00:02:00,
2013-03-02 18:07:00,30.9,20.5,29.53,NW,311,4.0,5.8,65,0.00,,---,0.00,VWS V14.00,2013-03-03 00:07:00,
2013-03-02 18:12:00,30.9,20.5,29.53,West,280,5.4,7.4,65,0.00,,---,0.00,VWS V14.00,2013-03-03 00:12:00,
2013-03-02 18:17:00,30.6,20.2,29.56,NW,321,4.0,5.8,65,0.00,,---,0.00,VWS V14.00,2013-03-03 00:17:00,
2013-03-02 18:22:00,30.4,20.0,29.56,NW,317,4.0,5.8,65,0.00,,---,0.00,VWS V14.00,2013-03-03 00:22:00,
2013-03-02 18:27:00,30.4,20.0,29.56,NNW,344,4.7,6.6,65,0.00,,---,0.00,VWS V14.00,2013-03-03 00:27:00,
2013-03-02 18:32:00,30.4,20.0,29.56,WNW,298,5.4,7.4,65,0.00,,---,0.00,VWS V14.00,2013-03-03 00:32:00,
2013-03-02 18:37:00,30.4,20.0,29.56,WNW,299,4.7,6.6,65,0.00,,---,0.00,VWS V14.00,2013-03-03 00:37:00,
2013-03-02 18:42:00,30.4,20.0,29.56,NW,325,9.4,12.3,65,0.00,,---,0.00,VWS V14.00,2013-03-03 00:42:00,
2013-03-02 18:47:00,30.2,20.2,29.56,WNW,295,8.7,11.5,66,0.00,,---,0.00,VWS V14.00,2013-03-03 00:47:00,
2013-03-02 18:52:00,30.0,20.0,29.56,NW,307,5.4,7.4,66,0.00,,---,0.00,VWS V14.00,2013-03-03 00:52:00,
2013-03-02 18:57:00,30.0,20.0,29.56,NNW,348,4.7,6.6,66,0.00,,---,0.00,VWS V14.00,2013-03-03 00:57:00,
2013-03-02 19:02:00,30.0,20.0,29.56,North,353,8.7,11.5,66,0.00,,---,0.00,VWS V14.00,2013-03-03 01:02:00,
2013-03-02 19:07:00,30.0,20.4,29.56,NNW,346,9.4,12.3,67,0.00,,---,0.00,VWS V14.00,2013-03-03 01:07:00,
2013-03-02 19:12:00,30.0,20.4,29.56,NW,314,4.0,5.8,67,0.00,,---,0.00,VWS V14.00,2013-03-03 01:12:00,
2013-03-02 19:17:00,30.0,20.4,29.56,NNW,343,6.0,8.2,67,0.00,,---,0.00,VWS V14.00,2013-03-03 01:17:00,
2013-03-02 19:22:00,30.0,20.4,29.56,North,353,4.7,6.6,67,0.00,,---,0.00,VWS V14.00,2013-03-03 01:22:00,
2013-03-02 19:27:00,30.0,20.4,29.56,NNW,344,4.0,5.8,67,0.00,,---,0.00,VWS V14.00,2013-03-03 01:27:00,
2013-03-02 19:32:00,30.0,20.4,29.56,North,353,6.0,8.2,67,0.00,,---,0.00,VWS V14.00,2013-03-03 01:32:00,
2013-03-02 19:37:00,30.0,20.8,29.56,NW,312,6.0,10.7,68,0.00,,---,0.00,VWS V14.00,2013-03-03 01:37:00,
2013-03-02 19:42:00,30.0,20.8,29.56,NW,312,4.0,5.8,68,0.00,,---,0.00,VWS V14.00,2013-03-03 01:42:00,
2013-03-02 19:47:00,30.0,20.8,29.56,WNW,298,4.7,9.9,68,0.00,,---,0.00,VWS V14.00,2013-03-03 01:47:00,
2013-03-02 19:52:00,30.0,21.1,29.56,NW,322,6.0,8.2,69,0.00,,---,0.00,VWS V14.00,2013-03-03 01:52:00,
2013-03-02 19:57:00,30.0,21.1,29.56,NW,322,6.0,8.2,69,0.00,,---,0.00,VWS V14.00,2013-03-03 01:57:00,
2013-03-02 20:02:00,30.0,21.1,29.56,NW,325,4.0,5.8,69,0.00,,---,0.00,VWS V14.00,2013-03-03 02:02:00,
2013-03-02 20:07:00,30.0,21.1,29.56,West,281,3.4,6.6,69,0.00,,---,0.00,VWS V14.00,2013-03-03 02:07:00,
2013-03-02 20:12:00,30.0,21.1,29.56,NW,316,0.0,1.0,69,0.00,,---,0.00,VWS V14.00,2013-03-03 02:12:00,
2013-03-02 20:17:00,30.0,21.1,29.56,NNW,335,0.0,1.0,69,0.00,,---,0.00,VWS V14.00,2013-03-03 02:17:00,
2013-03-02 20:22:00,30.0,21.1,29.56,NW,306,0.0,1.0,69,0.00,,---,0.00,VWS V14.00,2013-03-03 02:22:00,
2013-03-02 20:27:00,30.0,21.1,29.56,NW,318,0.0,1.0,69,0.00,,---,0.00,VWS V14.00,2013-03-03 02:27:00,
2013-03-02 20:32:00,30.2,21.3,29.56,WNW,302,0.0,1.0,69,0.00,,---,0.00,VWS V14.00,2013-03-03 02:32:00,
2013-03-02 20:37:00,30.2,21.3,29.56,NW,326,0.0,1.0,69,0.00,,---,0.00,VWS V14.00,2013-03-03 02:37:00,
2013-03-02 20:42:00,30.2,21.3,29.56,NW,314,5.4,7.4,69,0.00,,---,0.00,VWS V14.00,2013-03-03 02:42:00,
2013-03-02 20:47:00,30.2,21.3,29.56,NW,313,4.7,6.6,69,0.00,,---,0.00,VWS V14.00,2013-03-03 02:47:00,
2013-03-02 20:52:00,30.2,21.3,29.56,NNW,340,4.0,5.8,69,0.00,,---,0.00,VWS V14.00,2013-03-03 02:52:00,
2013-03-02 20:57:00,30.2,21.3,29.56,WNW,300,4.0,5.8,69,0.00,,---,0.00,VWS V14.00,2013-03-03 02:57:00,
2013-03-02 21:02:00,30.0,21.1,29.56,NW,314,3.4,5.0,69,0.00,,---,0.00,VWS V14.00,2013-03-03 03:02:00,
2013-03-02 21:07:00,30.0,21.1,29.56,NW,312,4.7,6.6,69,0.00,,---,0.00,VWS V14.00,2013-03-03 03:07:00,
2013-03-02 21:12:00,29.8,20.9,29.56,NW,313,0.0,1.0,69,0.00,,---,0.00,VWS V14.00,2013-03-03 03:12:00,
2013-03-02 21:17:00,29.8,21.3,29.56,NW,307,0.0,1.0,70,0.00,,---,0.00,VWS V14.00,2013-03-03 03:17:00,
2013-03-02 21:22:00,29.7,21.1,29.56,NW,306,4.7,6.6,70,0.00,,---,0.00,VWS V14.00,2013-03-03 03:22:00,
2013-03-02 21:27:00,29.7,21.1,29.56,WNW,298,4.7,6.6,70,0.00,,---,0.00,VWS V14.00,2013-03-03 03:27:00,
2013-03-02 21:32:00,29.7,21.1,29.56,WNW,290,4.0,5.8,70,0.00,,---,0.00,VWS V14.00,2013-03-03 03:32:00,
2013-03-02 21:37:00,29.7,21.1,29.56,WNW,300,4.0,5.8,70,0.00,,---,0.00,VWS V14.00,2013-03-03 03:37:00,
2013-03-02 21:42:00,29.5,20.9,29.56,WNW,291,4.0,5.8,70,0.00,,---,0.00,VWS V14.00,2013-03-03 03:42:00,
2013-03-02 21:47:00,29.5,20.9,29.56,NW,307,3.4,5.0,70,0.00,,---,0.00,VWS V14.00,2013-03-03 03:47:00,
2013-03-02 21:52:00,29.5,20.9,29.56,NW,313,4.7,6.6,70,0.00,,---,0.00,VWS V14.00,2013-03-03 03:52:00,
2013-03-02 21:57:00,29.5,20.9,29.56,WNW,300,4.0,5.8,70,0.00,,---,0.00,VWS V14.00,2013-03-03 03:57:00,
2013-03-02 22:02:00,29.5,20.9,29.56,WNW,299,3.4,6.6,70,0.00,,---,0.00,VWS V14.00,2013-03-03 04:02:00,
2013-03-02 22:07:00,29.5,20.9,29.56,NW,306,4.0,5.8,70,0.00,,---,0.00,VWS V14.00,2013-03-03 04:07:00,
2013-03-02 22:12:00,29.5,20.9,29.56,WNW,295,4.0,5.8,70,0.00,,---,0.00,VWS V14.00,2013-03-03 04:12:00,
2013-03-02 22:17:00,29.5,20.9,29.56,WNW,297,4.0,5.8,70,0.00,,---,0.00,VWS V14.00,2013-03-03 04:17:00,
2013-03-02 22:22:00,29.3,20.7,29.56,NW,315,0.0,1.0,70,0.00,,---,0.00,VWS V14.00,2013-03-03 04:22:00,
2013-03-02 22:27:00,29.1,20.6,29.56,NW,310,4.0,5.8,70,0.00,,---,0.00,VWS V14.00,2013-03-03 04:27:00,
2013-03-02 22:32:00,28.9,20.4,29.56,WNW,298,4.7,6.6,70,0.00,,---,0.00,VWS V14.00,2013-03-03 04:32:00,
2013-03-02 22:37:00,28.9,20.1,29.56,NW,307,3.4,5.0,69,0.00,,---,0.00,VWS V14.00,2013-03-03 04:37:00,
2013-03-02 22:42:00,28.9,20.1,29.56,NW,307,4.0,6.6,69,0.00,,---,0.00,VWS V14.00,2013-03-03 04:42:00,
2013-03-02 22:47:00,29.1,19.9,29.56,North,1,7.4,9.9,68,0.00,,---,0.00,VWS V14.00,2013-03-03 04:47:00,
2013-03-02 22:52:00,29.3,19.7,29.56,North,2,11.4,14.7,67,0.00,,---,0.00,VWS V14.00,2013-03-03 04:52:00,
2013-03-02 22:57:00,29.5,19.5,29.56,NNW,342,5.4,10.7,66,0.00,,---,0.00,VWS V14.00,2013-03-03 04:57:00,
2013-03-02 23:00:00,29.5,19.2,29.56,North,3,4.0,11.5,65,0.00,,---,0.00,VWS V14.00,2013-03-03 05:00:00,
2013-03-02 23:05:00,29.5,19.2,29.56,North,357,8.1,10.7,65,0.00,,---,0.00,VWS V14.00,2013-03-03 05:05:00,
2013-03-02 23:10:00,29.5,18.8,29.56,North,357,6.0,8.2,64,0.00,,---,0.00,VWS V14.00,2013-03-03 05:10:00,
2013-03-02 23:15:00,29.5,18.8,29.56,North,357,0.0,1.0,64,0.00,,---,0.00,VWS V14.00,2013-03-03 05:15:00,
2013-03-02 23:20:00,29.5,18.8,29.56,North,357,0.0,1.0,64,0.00,,---,0.00,VWS V14.00,2013-03-03 05:20:00,
2013-03-02 23:25:00,29.3,18.6,29.56,North,357,0.0,1.0,64,0.00,,---,0.00,VWS V14.00,2013-03-03 05:25:00,
2013-03-02 23:30:00,29.3,18.6,29.56,North,353,0.0,1.0,64,0.00,,---,0.00,VWS V14.00,2013-03-03 05:30:00,
2013-03-02 23:35:00,29.1,18.5,29.56,NNW,348,0.0,1.0,64,0.00,,---,0.00,VWS V14.00,2013-03-03 05:35:00,
2013-03-02 23:40:00,29.1,18.5,29.56,NNW,344,0.0,1.0,64,0.00,,---,0.00,VWS V14.00,2013-03-03 05:40:00,
2013-03-02 23:45:00,29.1,18.5,29.56,NNW,344,0.0,1.0,64,0.00,,---,0.00,VWS V14.00,2013-03-03 05:45:00,
2013-03-02 23:50:00,28.9,18.3,29.56,NNW,340,0.0,1.0,64,0.00,,---,0.00,VWS V14.00,2013-03-03 05:50:00,
2013-03-02 23:55:00,29.1,18.8,29.56,NNW,336,0.0,1.0,65,0.00,,---,0.00,VWS V14.00,2013-03-03 05:55:00,